Afric Star — A8KJ8 — position and weather

sailwx.info

Track history (hours):
 
Tides and Currents Weather Stations Pressure Air Temp Water Temp Dewpoint Dewpoint Depression Visibility Wind Speed Wind Dir Waves Ship Positions

Afric Star

Last reported at 2016-Dec-05 03:29 UTC. Time now 2016-Dec-08 16:12 UTC.
Position N 49°12' W 005°25'.

Length 158 m; draft 7.8 m.

Type: Cargo ship. MMSI: 636013069.

Date/timePositionNaut miles runAvg speedWind from/ knotsBaromVisibWave heightAir tempDewpointWater temp
2016-Dec-05 03:29N 49°12' W 005°25'1616.4
2016-Dec-05 02:32N 49°18' W 005°04'3316.9
2016-Dec-05 00:33N 49°33' W 004°17'2116.3
2016-Dec-04 23:16N 49°42' W 003°48'1115.6
2016-Dec-04 22:34N 49°47' W 003°32'1515.0
2016-Dec-04 21:34N 49°54' W 003°12'4715.8
2016-Dec-04 18:33N 50°07' W 002°01'1818.5
2016-Dec-04 17:33N 50°12' W 001°34'2718.9
2016-Dec-04 16:08N 50°19' W 000°53'1718.7
2016-Dec-04 15:14N 50°24' W 000°27'1218.0
2016-Dec-04 14:33N 50°27' W 000°09'1717.0
2016-Dec-04 13:32N 50°31' E 000°17'3615.8
2016-Dec-04 11:16N 50°48' E 001°07'1217.3
2016-Dec-04 10:34N 50°57' E 001°21'1919.4
2016-Dec-04 09:34N 51°11' E 001°42'1818.2
2016-Dec-04 08:33N 51°26' E 001°59'1717.1
2016-Dec-04 07:34N 51°39' E 002°16'1616.3
2016-Dec-04 06:33N 51°52' E 002°33'4715.1
2016-Dec-04 03:26N 52°34' E 003°09'1516.3
2016-Dec-04 02:32N 52°48' E 003°13'38516.4
2016-Dec-03 03:08N 57°49' E 010°15'1016.9
2016-Dec-03 02:33N 57°51' E 010°33'1616.4
2016-Dec-03 01:34N 57°51' E 011°04'1413.5
2016-Dec-03 00:33N 57°53' E 011°29'1212.3
2016-Dec-02 23:33N 58°01' E 011°46'1010.0
2016-Dec-02 22:33N 58°10' E 011°51'  
2016-Nov-29 20:13N 58°19' E 011°48'1011.7
2016-Nov-29 19:24N 58°10' E 011°51'910.3
2016-Nov-29 18:33N 58°01' E 011°47'1212.4
2016-Nov-29 17:34N 57°53' E 011°30'1010.5
2016-Nov-29 16:33N 57°43' E 011°25'1313.2
2016-Nov-29 15:33N 57°30' E 011°26'1515.4
2016-Nov-29 14:33N 57°15' E 011°36'1615.8
2016-Nov-29 13:32N 57°00' E 011°45'3915.8
2016-Nov-29 11:04N 56°23' E 012°08'815.8
2016-Nov-29 10:33N 56°17' E 012°18'1615.9
2016-Nov-29 09:33N 56°05' E 012°36'1212.2
2016-Nov-29 08:33N 55°54' E 012°45'1313.2
2016-Nov-29 07:33N 55°41' E 012°41'7 7.1
2016-Nov-29 06:33N 55°34' E 012°42'9 8.6
2016-Nov-29 05:33N 55°25' E 012°41'1010.0
2016-Nov-29 04:33N 55°16' E 012°50'1614.9
2016-Nov-29 03:28N 55°14' E 013°19'1415.1
2016-Nov-29 02:33N 55°14' E 013°43'1514.8
2016-Nov-29 01:33N 55°13' E 014°09'1413.7
2016-Nov-29 00:32N 55°21' E 014°28'1515.0
2016-Nov-28 23:33N 55°30' E 014°49'1515.1
2016-Nov-28 22:33N 55°38' E 015°12'34515.6
2016-Nov-28 00:28N 59°35' E 023°01'1516.4
2016-Nov-27 23:33N 59°39' E 023°29'1616.3
2016-Nov-27 22:33N 59°43' E 024°00'1816.6
2016-Nov-27 21:28N 59°48' E 024°35'4816.5
2016-Nov-27 18:33N 59°58' E 026°09'1616.4
2016-Nov-27 17:34N 60°01' E 026°41'1615.3
2016-Nov-27 16:33N 60°02' E 027°12'1716.7
2016-Nov-27 15:33N 60°11' E 027°40'1515.5
2016-Nov-27 14:33N 60°09' E 028°11'1515.3
2016-Nov-27 13:33N 60°03' E 028°40'1615.8
2016-Nov-27 12:33N 60°02' E 029°11'1312.2
2016-Nov-27 11:28N 60°00' E 029°37'1010.5
2016-Nov-27 10:33N 59°56' E 029°55'9 9.1
2016-Nov-27 09:33N 59°53' E 030°12'1 1.3
2016-Nov-27 08:31N 59°54' E 030°13'0 0.0
2016-Nov-27 07:34N 59°54' E 030°13'0 0.0
2016-Nov-27 06:31N 59°54' E 030°13'0 0.0
2016-Nov-27 05:31N 59°54' E 030°13'0 0.0
2016-Nov-27 04:31N 59°54' E 030°13'0 0.0
2016-Nov-27 03:34N 59°54' E 030°13'0 0.0
2016-Nov-27 02:31N 59°54' E 030°13'0 0.0
2016-Nov-27 01:34N 59°54' E 030°13'0 0.0
2016-Nov-27 00:33N 59°54' E 030°13'0 0.0
2016-Nov-26 23:31N 59°54' E 030°13'0 0.0
2016-Nov-26 22:31N 59°54' E 030°13'0 0.0
2016-Nov-26 21:31N 59°54' E 030°13'0 0.0
2016-Nov-26 20:33N 59°54' E 030°13'0 0.0
2016-Nov-26 19:31N 59°54' E 030°13'0 0.0
2016-Nov-26 18:33N 59°54' E 030°13'0 0.0
2016-Nov-26 17:31N 59°54' E 030°13'0 0.0
2016-Nov-26 16:34N 59°54' E 030°13'0 0.0
2016-Nov-26 15:34N 59°54' E 030°13'0 0.0
2016-Nov-26 14:33N 59°54' E 030°13'0 0.0
2016-Nov-26 13:33N 59°54' E 030°13'0 0.0
2016-Nov-26 12:33N 59°54' E 030°13'0 0.0
2016-Nov-26 11:33N 59°54' E 030°13'0 0.0
2016-Nov-26 10:33N 59°54' E 030°13'0 0.0
2016-Nov-26 09:33N 59°54' E 030°13'0 0.0
2016-Nov-26 08:33N 59°54' E 030°13'0 0.0
2016-Nov-26 07:33N 59°54' E 030°13'0 0.0
2016-Nov-26 06:33N 59°54' E 030°13'0 0.0
2016-Nov-26 05:33N 59°54' E 030°13'0 0.0
2016-Nov-26 04:33N 59°54' E 030°13'0 0.0
2016-Nov-26 03:33N 59°54' E 030°13'0 0.0
2016-Nov-26 02:33N 59°54' E 030°13'0 0.0
2016-Nov-26 01:33N 59°54' E 030°13'0 0.0
2016-Nov-26 00:33N 59°54' E 030°13'0 0.0
2016-Nov-25 23:33N 59°54' E 030°13'0 0.0
2016-Nov-25 22:33N 59°54' E 030°13'0 0.0
2016-Nov-25 21:30N 59°54' E 030°13'0 0.0
2016-Nov-25 20:33N 59°54' E 030°13'0 0.0
2016-Nov-25 19:33N 59°54' E 030°13'0 0.0
2016-Nov-25 18:33N 59°54' E 030°13'0 0.0
2016-Nov-25 17:33N 59°54' E 030°13'0 0.0
2016-Nov-25 16:33N 59°54' E 030°13'0 0.0
2016-Nov-25 15:33N 59°54' E 030°13'0 0.0
2016-Nov-25 14:33N 59°54' E 030°13'0 0.0
2016-Nov-25 13:33N 59°54' E 030°13'0 0.0
2016-Nov-25 12:33N 59°54' E 030°13'0 0.0
2016-Nov-25 11:33N 59°54' E 030°13'0 0.0
2016-Nov-25 10:33N 59°54' E 030°13'0 0.0
2016-Nov-25 09:33N 59°54' E 030°13'0 0.0
2016-Nov-25 08:33N 59°54' E 030°13'0 0.0
2016-Nov-25 07:33N 59°54' E 030°13'0 0.0
2016-Nov-25 06:33N 59°54' E 030°13'0 0.0
2016-Nov-25 05:33N 59°54' E 030°13'0 0.0
2016-Nov-25 04:33N 59°54' E 030°13'0 0.0
2016-Nov-25 03:33N 59°54' E 030°13'  
Track history (hours):
 
Tides and Currents Weather Stations Pressure Air Temp Water Temp Dewpoint Dewpoint Depression Visibility Wind Speed Wind Dir Waves Ship Positions

Afric Star

Last reported at 2016-Dec-05 03:29 UTC. Time now 2016-Dec-08 16:13 UTC.
Position N 49°12' W 005°25'.

Length 158 m; draft 7.8 m.

Type: Cargo ship. MMSI: 636013069.

Date/timePositionNaut miles runAvg speedWind from/ knotsBaromVisibWave heightAir tempDewpointWater temp
2016-Dec-05 03:29N 49°12' W 005°25'1616.4
2016-Dec-05 02:32N 49°18' W 005°04'3316.9
2016-Dec-05 00:33N 49°33' W 004°17'2116.3
2016-Dec-04 23:16N 49°42' W 003°48'1115.6
2016-Dec-04 22:34N 49°47' W 003°32'1515.0
2016-Dec-04 21:34N 49°54' W 003°12'4715.8
2016-Dec-04 18:33N 50°07' W 002°01'1818.5
2016-Dec-04 17:33N 50°12' W 001°34'2718.9
2016-Dec-04 16:08N 50°19' W 000°53'1718.7
2016-Dec-04 15:14N 50°24' W 000°27'1218.0
2016-Dec-04 14:33N 50°27' W 000°09'1717.0
2016-Dec-04 13:32N 50°31' E 000°17'3615.8
2016-Dec-04 11:16N 50°48' E 001°07'1217.3
2016-Dec-04 10:34N 50°57' E 001°21'1919.4
2016-Dec-04 09:34N 51°11' E 001°42'1818.2
2016-Dec-04 08:33N 51°26' E 001°59'1717.1
2016-Dec-04 07:34N 51°39' E 002°16'1616.3
2016-Dec-04 06:33N 51°52' E 002°33'4715.1
2016-Dec-04 03:26N 52°34' E 003°09'1516.3
2016-Dec-04 02:32N 52°48' E 003°13'38516.4
2016-Dec-03 03:08N 57°49' E 010°15'1016.9
2016-Dec-03 02:33N 57°51' E 010°33'1616.4
2016-Dec-03 01:34N 57°51' E 011°04'1413.5
2016-Dec-03 00:33N 57°53' E 011°29'1212.3
2016-Dec-02 23:33N 58°01' E 011°46'1010.0
2016-Dec-02 22:33N 58°10' E 011°51'  
2016-Nov-29 20:13N 58°19' E 011°48'1011.7
2016-Nov-29 19:24N 58°10' E 011°51'910.3
2016-Nov-29 18:33N 58°01' E 011°47'1212.4
2016-Nov-29 17:34N 57°53' E 011°30'1010.5
2016-Nov-29 16:33N 57°43' E 011°25'1313.2
2016-Nov-29 15:33N 57°30' E 011°26'1515.4
2016-Nov-29 14:33N 57°15' E 011°36'1615.8
2016-Nov-29 13:32N 57°00' E 011°45'3915.8
2016-Nov-29 11:04N 56°23' E 012°08'815.8
2016-Nov-29 10:33N 56°17' E 012°18'1615.9
2016-Nov-29 09:33N 56°05' E 012°36'1212.2
2016-Nov-29 08:33N 55°54' E 012°45'1313.2
2016-Nov-29 07:33N 55°41' E 012°41'7 7.1
2016-Nov-29 06:33N 55°34' E 012°42'9 8.6
2016-Nov-29 05:33N 55°25' E 012°41'1010.0
2016-Nov-29 04:33N 55°16' E 012°50'1614.9
2016-Nov-29 03:28N 55°14' E 013°19'1415.1
2016-Nov-29 02:33N 55°14' E 013°43'1514.8
2016-Nov-29 01:33N 55°13' E 014°09'1413.7
2016-Nov-29 00:32N 55°21' E 014°28'1515.0
2016-Nov-28 23:33N 55°30' E 014°49'1515.1
2016-Nov-28 22:33N 55°38' E 015°12'34515.6
2016-Nov-28 00:28N 59°35' E 023°01'1516.4
2016-Nov-27 23:33N 59°39' E 023°29'1616.3
2016-Nov-27 22:33N 59°43' E 024°00'1816.6
2016-Nov-27 21:28N 59°48' E 024°35'4816.5
2016-Nov-27 18:33N 59°58' E 026°09'1616.4
2016-Nov-27 17:34N 60°01' E 026°41'1615.3
2016-Nov-27 16:33N 60°02' E 027°12'1716.7
2016-Nov-27 15:33N 60°11' E 027°40'1515.5
2016-Nov-27 14:33N 60°09' E 028°11'1515.3
2016-Nov-27 13:33N 60°03' E 028°40'1615.8
2016-Nov-27 12:33N 60°02' E 029°11'1312.2
2016-Nov-27 11:28N 60°00' E 029°37'1010.5
2016-Nov-27 10:33N 59°56' E 029°55'9 9.1
2016-Nov-27 09:33N 59°53' E 030°12'1 1.3
2016-Nov-27 08:31N 59°54' E 030°13'0 0.0
2016-Nov-27 07:34N 59°54' E 030°13'0 0.0
2016-Nov-27 06:31N 59°54' E 030°13'0 0.0
2016-Nov-27 05:31N 59°54' E 030°13'0 0.0
2016-Nov-27 04:31N 59°54' E 030°13'0 0.0
2016-Nov-27 03:34N 59°54' E 030°13'0 0.0
2016-Nov-27 02:31N 59°54' E 030°13'0 0.0
2016-Nov-27 01:34N 59°54' E 030°13'0 0.0
2016-Nov-27 00:33N 59°54' E 030°13'0 0.0
2016-Nov-26 23:31N 59°54' E 030°13'0 0.0
2016-Nov-26 22:31N 59°54' E 030°13'0 0.0
2016-Nov-26 21:31N 59°54' E 030°13'0 0.0
2016-Nov-26 20:33N 59°54' E 030°13'0 0.0
2016-Nov-26 19:31N 59°54' E 030°13'0 0.0
2016-Nov-26 18:33N 59°54' E 030°13'0 0.0
2016-Nov-26 17:31N 59°54' E 030°13'0 0.0
2016-Nov-26 16:34N 59°54' E 030°13'0 0.0
2016-Nov-26 15:34N 59°54' E 030°13'0 0.0
2016-Nov-26 14:33N 59°54' E 030°13'0 0.0
2016-Nov-26 13:33N 59°54' E 030°13'0 0.0
2016-Nov-26 12:33N 59°54' E 030°13'0 0.0
2016-Nov-26 11:33N 59°54' E 030°13'0 0.0
2016-Nov-26 10:33N 59°54' E 030°13'0 0.0
2016-Nov-26 09:33N 59°54' E 030°13'0 0.0
2016-Nov-26 08:33N 59°54' E 030°13'0 0.0
2016-Nov-26 07:33N 59°54' E 030°13'0 0.0
2016-Nov-26 06:33N 59°54' E 030°13'0 0.0
2016-Nov-26 05:33N 59°54' E 030°13'0 0.0
2016-Nov-26 04:33N 59°54' E 030°13'0 0.0
2016-Nov-26 03:33N 59°54' E 030°13'0 0.0
2016-Nov-26 02:33N 59°54' E 030°13'0 0.0
2016-Nov-26 01:33N 59°54' E 030°13'0 0.0
2016-Nov-26 00:33N 59°54' E 030°13'0 0.0
2016-Nov-25 23:33N 59°54' E 030°13'0 0.0
2016-Nov-25 22:33N 59°54' E 030°13'0 0.0
2016-Nov-25 21:30N 59°54' E 030°13'0 0.0
2016-Nov-25 20:33N 59°54' E 030°13'0 0.0
2016-Nov-25 19:33N 59°54' E 030°13'0 0.0
2016-Nov-25 18:33N 59°54' E 030°13'0 0.0
2016-Nov-25 17:33N 59°54' E 030°13'0 0.0
2016-Nov-25 16:33N 59°54' E 030°13'0 0.0
2016-Nov-25 15:33N 59°54' E 030°13'0 0.0
2016-Nov-25 14:33N 59°54' E 030°13'0 0.0
2016-Nov-25 13:33N 59°54' E 030°13'0 0.0
2016-Nov-25 12:33N 59°54' E 030°13'0 0.0
2016-Nov-25 11:33N 59°54' E 030°13'0 0.0
2016-Nov-25 10:33N 59°54' E 030°13'0 0.0
2016-Nov-25 09:33N 59°54' E 030°13'0 0.0
2016-Nov-25 08:33N 59°54' E 030°13'0 0.0
2016-Nov-25 07:33N 59°54' E 030°13'0 0.0
2016-Nov-25 06:33N 59°54' E 030°13'0 0.0
2016-Nov-25 05:33N 59°54' E 030°13'0 0.0
2016-Nov-25 04:33N 59°54' E 030°13'0 0.0
2016-Nov-25 03:33N 59°54' E 030°13'  

Dump ship's entire track history